createdAt,value
2017-09-12T00:00:01.323Z,12.65
2017-09-12T00:01:01.627Z,12.57
2017-09-12T00:02:00.993Z,12.58
2017-09-12T00:03:00.986Z,12.58
2017-09-12T00:04:01.612Z,12.62
2017-09-12T00:05:01.594Z,12.62
2017-09-12T00:06:01.275Z,12.58
2017-09-12T00:07:01.582Z,12.54
2017-09-12T00:08:00.950Z,12.72
2017-09-12T00:09:01.253Z,12.63
2017-09-12T00:10:01.251Z,12.57
2017-09-12T00:11:01.556Z,12.61
2017-09-12T00:12:00.921Z,12.57
2017-09-12T00:13:01.539Z,12.54
2017-09-12T00:14:01.220Z,12.61
2017-09-12T00:15:01.533Z,12.57
2017-09-12T00:16:01.519Z,12.54
2017-09-12T00:17:01.511Z,12.53
2017-09-12T00:18:01.507Z,12.54
2017-09-12T00:19:01.499Z,12.48
2017-09-12T00:20:00.865Z,12.47
2017-09-12T00:21:01.172Z,12.53
2017-09-12T00:22:01.486Z,12.51
2017-09-12T00:23:01.155Z,12.47
2017-09-12T00:24:00.835Z,12.45
2017-09-12T00:25:00.828Z,12.4
2017-09-12T00:26:01.137Z,12.4
2017-09-12T00:27:01.129Z,12.3
2017-09-12T00:28:01.122Z,12.3
2017-09-12T00:29:01.111Z,12.26
2017-09-12T00:30:01.206Z,12.28
2017-09-12T00:31:01.100Z,12.32
2017-09-12T00:32:01.094Z,12.29
2017-09-12T00:33:01.086Z,12.21
2017-09-12T00:34:01.083Z,12.32
2017-09-12T00:35:00.756Z,12.33
2017-09-12T00:36:00.753Z,12.3
2017-09-12T00:37:00.742Z,12.29
2017-09-12T00:38:00.738Z,12.36
2017-09-12T00:39:00.731Z,12.36
2017-09-12T00:40:01.043Z,12.36
2017-09-12T00:41:01.030Z,12.36
2017-09-12T00:42:00.709Z,12.37
2017-09-12T00:43:01.335Z,12.35
2017-09-12T00:44:01.010Z,12.35
2017-09-12T00:45:01.311Z,12.35
2017-09-12T00:46:01.304Z,12.36
2017-09-12T00:47:01.404Z,12.39
2017-09-12T00:48:00.663Z,12.36
2017-09-12T00:49:01.282Z,12.35
2017-09-12T00:50:01.282Z,12.44
2017-09-12T00:51:01.275Z,12.44
2017-09-12T00:52:00.636Z,12.47
2017-09-12T00:53:01.256Z,12.43
2017-09-12T00:54:00.936Z,12.43
2017-09-12T00:55:01.241Z,12.4
2017-09-12T00:56:01.236Z,12.43
2017-09-12T00:57:01.329Z,12.4
2017-09-12T00:58:01.222Z,12.48
2017-09-12T00:59:01.214Z,12.44
2017-09-12T01:00:01.208Z,12.43
2017-09-12T01:01:00.885Z,12.33
2017-09-12T01:02:00.894Z,12.37
2017-09-12T01:03:01.190Z,12.36
2017-09-12T01:04:00.552Z,12.32
2017-09-12T01:05:00.960Z,12.3
2017-09-12T01:06:00.851Z,12.3
2017-09-12T01:07:01.156Z,12.29
2017-09-12T01:08:00.834Z,12.28
2017-09-12T01:09:00.615Z,12.29
2017-09-12T01:10:00.512Z,12.26
2017-09-12T01:11:00.815Z,12.26
2017-09-12T01:12:00.495Z,12.21
2017-09-12T01:13:00.804Z,12.23
2017-09-12T01:14:01.118Z,12.33
2017-09-12T01:15:00.786Z,12.3
2017-09-12T01:16:01.097Z,12.21
2017-09-12T01:17:00.777Z,12.21
2017-09-12T01:18:00.765Z,12.1
2017-09-12T01:19:00.759Z,12.2
2017-09-12T01:20:00.440Z,12.1
2017-09-12T01:21:01.057Z,12.14
2017-09-12T01:22:01.052Z,12.26
2017-09-12T01:23:00.735Z,12.23
2017-09-12T01:24:00.409Z,12.2
2017-09-12T01:25:01.133Z,12.28
2017-09-12T01:26:01.027Z,12.23
2017-09-12T01:27:00.389Z,12.25
2017-09-12T01:28:01.108Z,12.28
2017-09-12T01:29:00.686Z,12.3
2017-09-12T01:30:00.676Z,12.32
2017-09-12T01:31:00.672Z,12.32
2017-09-12T01:32:00.979Z,12.36
2017-09-12T01:33:00.979Z,12.3
2017-09-12T01:34:00.338Z,12.37
2017-09-12T01:35:00.644Z,12.36
2017-09-12T01:36:00.647Z,12.35
2017-09-12T01:37:00.944Z,12.43
2017-09-12T01:38:00.307Z,12.45
2017-09-12T01:39:00.301Z,12.47
2017-09-12T01:40:00.920Z,12.5
2017-09-12T01:41:00.602Z,12.44
2017-09-12T01:42:00.592Z,12.44
2017-09-12T01:43:00.274Z,12.45
2017-09-12T01:44:00.889Z,12.45
2017-09-12T01:45:00.987Z,12.47
2017-09-12T01:46:00.881Z,12.44
2017-09-12T01:47:00.872Z,12.53
2017-09-12T01:48:00.865Z,12.53
2017-09-12T01:49:00.857Z,12.51
2017-09-12T01:50:00.536Z,12.48
2017-09-12T01:51:00.534Z,12.57
2017-09-12T01:52:00.522Z,12.57
2017-09-12T01:53:00.838Z,12.53
2017-09-12T01:54:00.195Z,12.58
2017-09-12T01:55:00.501Z,12.62
2017-09-12T01:56:00.494Z,12.55
2017-09-12T01:57:00.487Z,12.65
2017-09-12T01:58:00.792Z,12.58
2017-09-12T01:59:00.470Z,12.55
2017-09-12T02:00:00.250Z,12.63
2017-09-12T02:01:00.460Z,12.57
2017-09-12T02:02:00.788Z,12.58
2017-09-12T02:03:00.756Z,12.62
2017-09-12T02:04:00.754Z,12.55
2017-09-12T02:05:00.117Z,12.58
2017-09-12T02:06:00.518Z,12.54
2017-09-12T02:07:00.730Z,12.61
2017-09-12T02:08:00.407Z,12.58
2017-09-12T02:09:00.721Z,12.63
2017-09-12T02:10:00.080Z,12.58
2017-09-12T02:11:00.698Z,12.7
2017-09-12T02:12:00.381Z,12.57
2017-09-12T02:13:00.688Z,12.65
2017-09-12T02:14:00.367Z,12.73
2017-09-12T02:15:00.700Z,12.51
2017-09-12T02:16:00.037Z,12.65
2017-09-12T02:17:00.444Z,12.55
2017-09-12T02:18:00.332Z,12.75
2017-09-12T02:19:00.646Z,12.72
2017-09-12T02:20:00.324Z,12.68
2017-09-12T02:21:00.316Z,12.66
2017-09-12T02:22:00.729Z,12.69
2017-09-12T02:23:00.715Z,12.69
2017-09-12T02:24:00.295Z,12.66
2017-09-12T02:25:00.598Z,12.62
2017-09-12T02:26:00.280Z,12.65
2017-09-12T02:27:00.278Z,12.72
2017-09-12T02:27:59.949Z,12.69
2017-09-12T02:29:00.046Z,12.7
2017-09-12T02:30:00.253Z,12.68
2017-09-12T02:31:00.243Z,12.73
2017-09-12T02:32:00.236Z,12.7
2017-09-12T02:33:00.231Z,12.69
2017-09-12T02:34:00.221Z,12.73
2017-09-12T02:35:00.526Z,12.7
2017-09-12T02:36:00.204Z,12.73
2017-09-12T02:37:00.201Z,12.8
2017-09-12T02:38:00.305Z,12.7
2017-09-12T02:39:00.505Z,12.78
2017-09-12T02:39:59.866Z,12.76
2017-09-12T02:41:00.173Z,12.75
2017-09-12T02:42:00.165Z,12.7
2017-09-12T02:43:00.476Z,12.69
2017-09-12T02:44:00.569Z,12.68
2017-09-12T02:45:00.144Z,12.81
2017-09-12T02:45:59.830Z,12.7
2017-09-12T02:47:00.129Z,12.7
2017-09-12T02:47:59.809Z,12.68
2017-09-12T02:49:00.429Z,12.7
2017-09-12T02:50:00.108Z,12.72
2017-09-12T02:51:00.521Z,12.76
2017-09-12T02:52:00.406Z,12.81
2017-09-12T02:53:00.090Z,12.76
2017-09-12T02:54:00.078Z,12.75
2017-09-12T02:54:59.857Z,12.76
2017-09-12T02:56:00.377Z,12.84
2017-09-12T02:56:59.741Z,12.72
2017-09-12T02:57:59.739Z,12.72
2017-09-12T02:59:00.038Z,12.72
2017-09-12T03:00:00.450Z,12.75
2017-09-12T03:01:00.438Z,12.81
2017-09-12T03:02:00.333Z,12.76
2017-09-12T03:03:00.012Z,12.72
2017-09-12T03:04:00.319Z,12.78
2017-09-12T03:05:00.006Z,12.7
2017-09-12T03:06:00.090Z,12.75
2017-09-12T03:06:59.673Z,12.72
2017-09-12T03:07:59.664Z,12.72
2017-09-12T03:08:59.968Z,12.69
2017-09-12T03:10:00.064Z,12.75
2017-09-12T03:10:59.957Z,12.75
2017-09-12T03:11:59.948Z,12.75
2017-09-12T03:13:00.253Z,12.75
2017-09-12T03:13:59.932Z,12.72
2017-09-12T03:14:59.612Z,12.73
2017-09-12T03:15:59.920Z,12.72
2017-09-12T03:17:00.326Z,12.73
2017-09-12T03:18:00.215Z,12.75
2017-09-12T03:19:00.213Z,12.75
2017-09-12T03:20:00.200Z,12.57
2017-09-12T03:20:59.885Z,12.72
2017-09-12T03:21:59.876Z,12.54
2017-09-12T03:22:59.556Z,12.69
2017-09-12T03:23:59.552Z,12.73
2017-09-12T03:25:00.168Z,12.76
2017-09-12T03:25:59.846Z,12.68
2017-09-12T03:26:59.842Z,12.75
2017-09-12T03:27:59.839Z,12.72
2017-09-12T03:28:59.512Z,12.75
2017-09-12T03:29:59.817Z,12.75
2017-09-12T03:30:59.818Z,12.73
2017-09-12T03:32:00.117Z,12.75
2017-09-12T03:32:59.484Z,12.75
2017-09-12T03:33:59.892Z,12.7
2017-09-12T03:34:59.789Z,12.8
2017-09-12T03:35:59.463Z,12.69
2017-09-12T03:36:59.772Z,12.78
2017-09-12T03:38:00.071Z,12.73
2017-09-12T03:38:59.855Z,12.81
2017-09-12T03:39:59.744Z,12.69
2017-09-12T03:40:59.742Z,12.66
2017-09-12T03:41:59.735Z,12.73
2017-09-12T03:43:00.045Z,12.84
2017-09-12T03:43:59.717Z,12.8
2017-09-12T03:44:59.398Z,12.83
2017-09-12T03:45:59.390Z,12.78
2017-09-12T03:46:59.695Z,12.83
2017-09-12T03:47:59.690Z,12.76
2017-09-12T03:49:00.094Z,12.8
2017-09-12T03:49:59.362Z,12.83
2017-09-12T03:50:59.666Z,12.83
2017-09-12T03:51:59.975Z,12.73
2017-09-12T03:52:59.969Z,12.75
2017-09-12T03:53:59.958Z,12.73
2017-09-12T03:54:59.325Z,12.73
2017-09-12T03:55:59.630Z,12.7
2017-09-12T03:56:59.621Z,12.72
2017-09-12T03:57:59.944Z,12.7
2017-09-12T03:58:59.396Z,12.72
2017-09-12T03:59:59.917Z,12.76
2017-09-12T04:00:59.595Z,12.68
2017-09-12T04:01:59.900Z,12.72
2017-09-12T04:02:59.679Z,12.75
2017-09-12T04:03:59.260Z,12.75
2017-09-12T04:04:59.567Z,12.68
2017-09-12T04:05:59.558Z,12.78
2017-09-12T04:06:59.238Z,12.68
2017-09-12T04:07:59.963Z,12.73
2017-09-12T04:08:59.536Z,12.73
2017-09-12T04:09:59.216Z,12.73
2017-09-12T04:10:59.533Z,12.73
2017-09-12T04:11:59.516Z,12.75
2017-09-12T04:12:59.619Z,12.76
2017-09-12T04:13:59.818Z,12.7
2017-09-12T04:14:59.182Z,12.72
2017-09-12T04:15:59.175Z,12.58
2017-09-12T04:16:59.793Z,12.58
2017-09-12T04:17:59.785Z,12.57
2017-09-12T04:18:59.572Z,12.55
2017-09-12T04:19:59.460Z,12.62
2017-09-12T04:20:59.451Z,12.63
2017-09-12T04:21:59.754Z,12.61
2017-09-12T04:22:59.121Z,12.61
2017-09-12T04:23:59.528Z,12.58
2017-09-12T04:24:59.422Z,12.61
2017-09-12T04:25:59.735Z,12.57
2017-09-12T04:26:59.092Z,12.61
2017-09-12T04:27:59.088Z,12.61
2017-09-12T04:28:59.081Z,12.58
2017-09-12T04:29:59.694Z,12.55
2017-09-12T04:30:59.374Z,12.51
2017-09-12T04:31:59.368Z,12.44
2017-09-12T04:32:59.362Z,12.48
2017-09-12T04:33:59.457Z,12.4
2017-09-12T04:34:59.662Z,12.43
2017-09-12T04:35:59.757Z,12.44
2017-09-12T04:36:59.648Z,12.33
2017-09-12T04:37:59.329Z,12.4
2017-09-12T04:38:59.318Z,12.37
2017-09-12T04:39:59.314Z,12.35
2017-09-12T04:40:59.723Z,12.36
2017-09-12T04:41:58.985Z,12.33
2017-09-12T04:42:59.709Z,12.43
2017-09-12T04:43:59.284Z,12.47
2017-09-12T04:44:59.276Z,12.47
2017-09-12T04:45:59.584Z,12.43
2017-09-12T04:46:59.576Z,12.45
2017-09-12T04:47:59.253Z,12.48
2017-09-12T04:48:59.248Z,12.48
2017-09-12T04:49:59.552Z,12.44
2017-09-12T04:50:59.234Z,12.36
2017-09-12T04:51:59.228Z,12.39
2017-09-12T04:52:59.217Z,12.47
2017-09-12T04:53:58.997Z,12.35
2017-09-12T04:54:59.517Z,12.45
2017-09-12T04:55:59.202Z,12.47
2017-09-12T04:56:59.192Z,12.48
2017-09-12T04:57:59.180Z,12.45
2017-09-12T04:58:59.486Z,12.44
2017-09-12T04:59:59.174Z,12.3
2017-09-12T05:00:59.478Z,12.48
2017-09-12T05:01:59.156Z,12.47
2017-09-12T05:02:59.283Z,12.44
2017-09-12T05:03:59.141Z,12.45
2017-09-12T05:04:58.819Z,12.36
2017-09-12T05:05:59.127Z,12.4
2017-09-12T05:06:58.802Z,12.35
2017-09-12T05:07:59.111Z,12.33
2017-09-12T05:08:59.417Z,12.35
2017-09-12T05:09:59.093Z,12.39
2017-09-12T05:10:58.775Z,12.4
2017-09-12T05:11:58.768Z,12.33
2017-09-12T05:12:58.762Z,12.35
2017-09-12T05:13:59.067Z,12.39
2017-09-12T05:14:59.380Z,12.4
2017-09-12T05:15:59.048Z,12.47
2017-09-12T05:16:59.147Z,12.44
2017-09-12T05:17:59.350Z,12.44
2017-09-12T05:18:59.031Z,12.4
2017-09-12T05:19:59.021Z,12.33
2017-09-12T05:20:59.333Z,12.33
2017-09-12T05:21:59.108Z,12.35
2017-09-12T05:22:58.998Z,12.35
2017-09-12T05:23:59.094Z,12.36
2017-09-12T05:24:59.310Z,12.36
2017-09-12T05:25:59.294Z,12.35
2017-09-12T05:26:58.973Z,12.4
2017-09-12T05:27:58.650Z,12.37
2017-09-12T05:28:59.275Z,12.39
2017-09-12T05:29:59.263Z,12.45
2017-09-12T05:30:58.941Z,12.47
2017-09-12T05:31:58.619Z,12.48
2017-09-12T05:32:59.246Z,12.45
2017-09-12T05:33:58.919Z,12.47
2017-09-12T05:34:58.914Z,12.48
2017-09-12T05:35:59.222Z,12.5
2017-09-12T05:36:58.901Z,12.5
2017-09-12T05:37:59.202Z,12.47
2017-09-12T05:38:59.201Z,12.47
2017-09-12T05:39:58.880Z,12.4
2017-09-12T05:40:58.879Z,12.5
2017-09-12T05:41:59.178Z,12.44
2017-09-12T05:42:59.175Z,12.36
2017-09-12T05:43:58.849Z,12.4
2017-09-12T05:44:58.842Z,12.35
2017-09-12T05:45:58.830Z,12.4
2017-09-12T05:46:59.136Z,12.45
2017-09-12T05:47:59.135Z,12.43
2017-09-12T05:48:58.814Z,12.39
2017-09-12T05:49:58.801Z,12.33
2017-09-12T05:50:58.799Z,12.35
2017-09-12T05:51:58.789Z,12.32
2017-09-12T05:52:58.472Z,12.29
2017-09-12T05:53:59.091Z,12.3
2017-09-12T05:54:58.872Z,12.25
2017-09-12T05:55:59.072Z,12.29
2017-09-12T05:56:58.543Z,12.36
2017-09-12T05:57:58.746Z,12.28
2017-09-12T05:58:59.060Z,12.3
2017-09-12T05:59:58.728Z,12.33
2017-09-12T06:00:58.721Z,12.37
2017-09-12T06:01:59.038Z,12.28
2017-09-12T06:02:58.707Z,12.3
2017-09-12T06:03:58.702Z,12.26
2017-09-12T06:04:59.012Z,12.35
2017-09-12T06:05:58.378Z,12.36
2017-09-12T06:06:58.681Z,12.21
2017-09-12T06:07:58.675Z,12.26
2017-09-12T06:08:58.670Z,12.28
2017-09-12T06:09:58.664Z,12.36
2017-09-12T06:10:58.342Z,12.35
2017-09-12T06:11:58.333Z,12.36
2017-09-12T06:12:58.954Z,12.4
2017-09-12T06:13:58.944Z,12.36
2017-09-12T06:14:58.945Z,12.3
2017-09-12T06:15:58.308Z,12.37
2017-09-12T06:16:59.026Z,12.35
2017-09-12T06:17:58.607Z,12.28
2017-09-12T06:19:13.507Z,12.32
2017-09-12T06:19:58.276Z,12.28
2017-09-12T06:20:58.581Z,12.39
2017-09-12T06:21:58.262Z,12.36
2017-09-12T06:22:58.669Z,12.39
2017-09-12T06:23:58.876Z,12.47
2017-09-12T06:24:58.560Z,12.45
2017-09-12T06:25:58.546Z,12.37
2017-09-12T06:26:58.638Z,12.45
2017-09-12T06:27:58.535Z,12.44
2017-09-12T06:28:58.526Z,12.44
2017-09-12T06:29:58.834Z,12.47
2017-09-12T06:30:58.829Z,12.39
2017-09-12T06:31:58.823Z,12.43
2017-09-12T06:32:58.180Z,12.45
2017-09-12T06:33:58.486Z,12.4
2017-09-12T06:34:58.482Z,12.43
2017-09-12T06:35:58.792Z,12.48
2017-09-12T06:36:58.794Z,12.48
2017-09-12T06:37:58.461Z,12.48
2017-09-12T06:38:58.142Z,12.48
2017-09-12T06:39:58.448Z,12.48
2017-09-12T06:40:58.753Z,12.55
2017-09-12T06:41:58.535Z,12.5
2017-09-12T06:42:58.736Z,12.55
2017-09-12T06:43:58.733Z,12.58
2017-09-12T06:44:58.116Z,12.58
2017-09-12T06:45:58.404Z,12.55
2017-09-12T06:46:58.713Z,12.53
2017-09-12T06:47:58.703Z,12.57
2017-09-12T06:48:58.699Z,12.61
2017-09-12T06:49:58.694Z,12.47
2017-09-12T06:50:58.056Z,12.45
2017-09-12T06:51:58.679Z,12.57
2017-09-12T06:52:58.673Z,12.48
2017-09-12T06:53:58.135Z,12.57
2017-09-12T06:54:58.341Z,12.58
2017-09-12T06:55:58.433Z,12.57
2017-09-12T06:56:58.330Z,12.44
2017-09-12T06:57:58.319Z,12.53
2017-09-12T06:58:58.314Z,12.55
2017-09-12T06:59:58.620Z,12.57
2017-09-12T07:00:58.616Z,12.53
2017-09-12T07:01:58.005Z,12.55
2017-09-12T07:02:57.973Z,12.66
2017-09-12T07:03:58.282Z,12.57
2017-09-12T07:04:58.274Z,12.73
2017-09-12T07:05:58.267Z,12.7
2017-09-12T07:06:58.260Z,12.78
2017-09-12T07:07:58.252Z,12.72
2017-09-12T07:08:58.658Z,12.73
2017-09-12T07:09:57.924Z,12.81
2017-09-12T07:10:58.545Z,12.83
2017-09-12T07:11:57.914Z,12.95
2017-09-12T07:12:58.220Z,12.87
2017-09-12T07:13:58.210Z,12.9
2017-09-12T07:14:58.203Z,12.94
2017-09-12T07:15:58.517Z,12.98
2017-09-12T07:16:57.877Z,13.03
2017-09-12T07:17:58.185Z,13.12
2017-09-12T07:18:58.493Z,13.13
2017-09-12T07:19:58.492Z,13.05
2017-09-12T07:20:58.479Z,13.11
2017-09-12T07:21:58.155Z,13.08
2017-09-12T07:22:58.153Z,13.16
2017-09-12T07:23:58.556Z,13.17
2017-09-12T07:24:58.141Z,13.19
2017-09-12T07:25:58.132Z,13.12
2017-09-12T07:26:58.128Z,13.19
2017-09-12T07:27:57.805Z,13.11
2017-09-12T07:28:57.798Z,13.06
2017-09-12T07:29:58.105Z,13.09
2017-09-12T07:30:58.412Z,13.11
2017-09-12T07:31:58.106Z,13.31
2017-09-12T07:32:58.398Z,13.31
2017-09-12T07:33:57.765Z,13.13
2017-09-12T07:34:57.756Z,13.26
2017-09-12T07:35:57.751Z,13.13
2017-09-12T07:36:58.369Z,13.27
2017-09-12T07:37:58.055Z,13.13
2017-09-12T07:38:57.730Z,13.3
2017-09-12T07:39:58.354Z,13.24
2017-09-12T07:40:58.029Z,13.27
2017-09-12T07:41:58.022Z,13.27
2017-09-12T07:42:58.014Z,13.28
2017-09-12T07:43:58.013Z,13.11
2017-09-12T07:44:58.317Z,13.13
2017-09-12T07:45:57.998Z,13.19
2017-09-12T07:46:57.675Z,13.28
2017-09-12T07:47:57.985Z,13.17
2017-09-12T07:48:57.660Z,13.31
2017-09-12T07:49:57.970Z,13.2
2017-09-12T07:50:58.279Z,13.12
2017-09-12T07:51:58.282Z,13.26
2017-09-12T07:52:57.949Z,13.26
2017-09-12T07:53:57.629Z,13.17
2017-09-12T07:54:57.940Z,13.19
2017-09-12T07:55:58.245Z,13.16
2017-09-12T07:56:57.711Z,13.2
2017-09-12T07:57:57.917Z,13.19
2017-09-12T07:58:57.595Z,13.2
2017-09-12T07:59:57.588Z,13.09
2017-09-12T08:00:57.583Z,13.26
2017-09-12T08:01:58.202Z,13.16
2017-09-12T08:02:57.670Z,13.26
2017-09-12T08:03:57.874Z,13.21
2017-09-12T08:04:57.870Z,13.26
2017-09-12T08:05:57.901Z,13.24
2017-09-12T08:06:57.859Z,13.19
2017-09-12T08:07:57.850Z,13.26
2017-09-12T08:08:57.945Z,13.27
2017-09-12T08:09:57.523Z,13.33
2017-09-12T08:10:57.514Z,13.49
2017-09-12T08:11:58.136Z,13.57
2017-09-12T08:12:57.502Z,13.61
2017-09-12T08:13:57.495Z,13.65
2017-09-12T08:14:58.107Z,13.62
2017-09-12T08:15:57.792Z,13.67
2017-09-12T08:16:58.100Z,13.67
2017-09-12T08:17:57.784Z,13.65
2017-09-12T08:18:57.458Z,13.61
2017-09-12T08:19:57.771Z,13.65
2017-09-12T08:20:58.080Z,13.7
2017-09-12T08:21:57.753Z,13.78
2017-09-12T08:22:57.745Z,13.86
2017-09-12T08:23:57.738Z,13.97
2017-09-12T08:24:57.832Z,14.11
2017-09-12T08:25:57.726Z,14.23
2017-09-12T08:26:58.033Z,14.25
2017-09-12T08:27:57.715Z,14.28
2017-09-12T08:28:58.021Z,14.41
2017-09-12T08:29:57.697Z,14.2
2017-09-12T08:30:57.801Z,14.33
2017-09-12T08:31:57.473Z,14.37
2017-09-12T08:32:57.682Z,14.3
2017-09-12T08:33:57.676Z,14.22
2017-09-12T08:34:57.665Z,14.31
2017-09-12T08:35:57.974Z,14.37
2017-09-12T08:36:57.652Z,14.38
2017-09-12T08:37:57.957Z,14.34
2017-09-12T08:38:57.957Z,14.44
2017-09-12T08:39:57.946Z,14.44
2017-09-12T08:40:57.311Z,14.45
2017-09-12T08:41:57.932Z,14.33
2017-09-12T08:42:57.299Z,14.3
2017-09-12T08:43:57.922Z,14.18
2017-09-12T08:44:57.917Z,14.2
2017-09-12T08:45:57.903Z,14.2
2017-09-12T08:46:57.273Z,14.19
2017-09-12T08:47:57.890Z,14.22
2017-09-12T08:48:57.572Z,14.3
2017-09-12T08:49:57.564Z,14.22
2017-09-12T08:50:57.561Z,14.23
2017-09-12T08:51:57.549Z,14.22
2017-09-12T08:52:57.546Z,14.33
2017-09-12T08:53:57.637Z,14.37
2017-09-12T08:54:57.538Z,14.4
2017-09-12T08:55:57.522Z,14.49
2017-09-12T08:56:57.520Z,14.43
2017-09-12T08:57:57.614Z,14.49
2017-09-12T08:58:57.509Z,14.49
2017-09-12T08:59:57.504Z,14.43
2017-09-12T09:00:57.808Z,14.43
2017-09-12T09:01:57.490Z,14.34
2017-09-12T09:02:57.480Z,14.36
2017-09-12T09:03:57.793Z,14.43
2017-09-12T09:04:57.466Z,14.23
2017-09-12T09:05:57.147Z,14.34
2017-09-12T09:06:57.973Z,14.33
2017-09-12T09:07:57.135Z,14.36
2017-09-12T09:08:57.449Z,14.26
2017-09-12T09:09:57.539Z,14.31
2017-09-12T09:10:57.746Z,14.23
2017-09-12T09:11:57.738Z,14.3
2017-09-12T09:12:57.726Z,14.25
2017-09-12T09:13:57.507Z,14.25
2017-09-12T09:14:57.398Z,14.19
2017-09-12T09:15:57.496Z,14.23
2017-09-12T09:16:57.389Z,14.16
2017-09-12T09:17:57.380Z,14.11
2017-09-12T09:18:57.382Z,14.16
2017-09-12T09:19:57.055Z,14.15
2017-09-12T09:20:57.375Z,14.2
2017-09-12T09:21:57.354Z,14.25
2017-09-12T09:22:57.352Z,14.25
2017-09-12T09:23:57.661Z,14.18
2017-09-12T09:24:57.656Z,14.13
2017-09-12T09:25:57.642Z,14.07
2017-09-12T09:26:57.640Z,14.07
2017-09-12T09:27:57.630Z,13.97
2017-09-12T09:28:57.312Z,14.01
2017-09-12T09:29:57.625Z,13.87
2017-09-12T09:30:56.984Z,13.83
2017-09-12T09:31:57.610Z,13.85
2017-09-12T09:32:57.284Z,13.91
2017-09-12T09:33:57.595Z,13.82
2017-09-12T09:34:57.586Z,13.83
2017-09-12T09:35:57.267Z,13.76
2017-09-12T09:36:57.261Z,13.93
2017-09-12T09:37:56.938Z,13.85
2017-09-12T09:38:57.243Z,13.85
2017-09-12T09:39:57.240Z,13.97
2017-09-12T09:40:57.234Z,13.91
2017-09-12T09:41:57.543Z,13.82
2017-09-12T09:42:56.908Z,13.83
2017-09-12T09:43:57.214Z,13.73
2017-09-12T09:44:57.520Z,13.73
2017-09-12T09:45:57.625Z,13.76
2017-09-12T09:46:56.883Z,13.79
2017-09-12T09:47:57.189Z,13.83
2017-09-12T09:48:57.498Z,13.78
2017-09-12T09:49:56.861Z,13.78
2017-09-12T09:50:57.489Z,13.93
2017-09-12T09:51:57.159Z,13.82
2017-09-12T09:52:57.157Z,13.89
2017-09-12T09:53:57.465Z,13.95
2017-09-12T09:54:57.142Z,13.94
2017-09-12T09:55:57.450Z,13.98
2017-09-12T09:56:56.819Z,13.93
2017-09-12T09:57:57.123Z,14.05
2017-09-12T09:58:57.126Z,14.04
2017-09-12T09:59:56.798Z,14.03
2017-09-12T10:00:56.793Z,13.97
2017-09-12T10:01:57.413Z,13.95
2017-09-12T10:02:57.092Z,13.98
2017-09-12T10:03:57.086Z,13.91
2017-09-12T10:04:57.397Z,13.97
2017-09-12T10:05:56.759Z,13.91
2017-09-12T10:06:56.858Z,13.89
2017-09-12T10:07:57.061Z,13.97
2017-09-12T10:08:57.368Z,13.97
2017-09-12T10:09:56.737Z,14.01
2017-09-12T10:10:57.048Z,13.95
2017-09-12T10:11:57.038Z,13.98
2017-09-12T10:12:57.353Z,14.03
2017-09-12T10:13:56.712Z,13.95
2017-09-12T10:14:56.730Z,14
2017-09-12T10:15:57.016Z,14.08
2017-09-12T10:16:56.693Z,14.11
2017-09-12T10:17:57.000Z,14.15
2017-09-12T10:18:56.998Z,14.15
2017-09-12T10:19:57.305Z,14.2
2017-09-12T10:20:56.671Z,14.25
2017-09-12T10:21:56.977Z,14.28
2017-09-12T10:22:56.975Z,14.16
2017-09-12T10:23:56.650Z,14.23
2017-09-12T10:24:56.960Z,14.37
2017-09-12T10:25:56.952Z,14.4
2017-09-12T10:26:56.632Z,14.4
2017-09-12T10:27:56.628Z,14.51
2017-09-12T10:28:56.937Z,14.41
2017-09-12T10:29:56.933Z,14.41
2017-09-12T10:30:56.926Z,14.59
2017-09-12T10:31:56.914Z,14.61
2017-09-12T10:32:57.014Z,14.53
2017-09-12T10:33:56.593Z,14.49
2017-09-12T10:34:56.586Z,14.52
2017-09-12T10:35:56.892Z,14.52
2017-09-12T10:36:56.892Z,14.52
2017-09-12T10:37:56.882Z,14.58
2017-09-12T10:38:56.875Z,14.52
2017-09-12T10:39:56.871Z,14.55
2017-09-12T10:40:56.861Z,14.55
2017-09-12T10:41:56.545Z,14.55
2017-09-12T10:42:56.853Z,14.52
2017-09-12T10:43:56.848Z,14.63
2017-09-12T10:44:56.844Z,14.58
2017-09-12T10:45:56.837Z,14.51
2017-09-12T10:46:57.142Z,14.45
2017-09-12T10:47:57.139Z,14.49
2017-09-12T10:48:56.500Z,14.48
2017-09-12T10:49:56.809Z,14.53
2017-09-12T10:50:56.805Z,14.53
2017-09-12T10:51:56.801Z,14.52
2017-09-12T10:52:56.581Z,14.56
2017-09-12T10:53:56.785Z,14.55
2017-09-12T10:54:56.880Z,14.56
2017-09-12T10:55:56.773Z,14.53
2017-09-12T10:56:56.772Z,14.58
2017-09-12T10:57:57.078Z,14.7
2017-09-12T10:58:56.760Z,14.73
2017-09-12T10:59:56.439Z,14.74
2017-09-12T11:00:57.055Z,14.73
2017-09-12T11:01:57.053Z,14.85
2017-09-12T11:02:56.733Z,14.87
2017-09-12T11:03:57.045Z,14.85
2017-09-12T11:04:56.722Z,14.93
2017-09-12T11:05:57.029Z,14.89
2017-09-12T11:06:56.729Z,14.89
2017-09-12T11:07:56.392Z,14.9
2017-09-12T11:08:56.384Z,14.97
2017-09-12T11:09:57.004Z,15.08
2017-09-12T11:10:57.000Z,15.11
2017-09-12T11:11:56.994Z,15.14
2017-09-12T11:12:56.359Z,15.14
2017-09-12T11:13:56.665Z,15.14
2017-09-12T11:14:56.663Z,15.14
2017-09-12T11:15:56.656Z,15.15
2017-09-12T11:16:56.650Z,15.11
2017-09-12T11:17:56.647Z,15.17
2017-09-12T11:18:56.325Z,15.07
2017-09-12T11:19:56.942Z,15.11
2017-09-12T11:20:56.314Z,15.12
2017-09-12T11:21:56.619Z,15.14
2017-09-12T11:22:56.300Z,15.18
2017-09-12T11:23:56.606Z,15.27
2017-09-12T11:24:56.921Z,15.33
2017-09-12T11:25:56.699Z,15.47
2017-09-12T11:26:56.592Z,15.65
2017-09-12T11:27:56.582Z,15.63
2017-09-12T11:28:56.265Z,15.6
2017-09-12T11:29:56.888Z,15.59
2017-09-12T11:30:56.571Z,15.76
2017-09-12T11:31:56.887Z,15.59
2017-09-12T11:32:56.871Z,15.55
2017-09-12T11:33:56.867Z,15.57
2017-09-12T11:34:56.864Z,15.63
2017-09-12T11:35:56.955Z,15.69
2017-09-12T11:36:56.536Z,15.8
2017-09-12T11:37:56.531Z,15.84
2017-09-12T11:38:56.525Z,16.05
2017-09-12T11:39:56.831Z,15.99
2017-09-12T11:40:56.825Z,16.08
2017-09-12T11:41:56.504Z,16.08
2017-09-12T11:42:56.812Z,16.12
2017-09-12T11:43:56.282Z,15.96
2017-09-12T11:44:56.174Z,16.05
2017-09-12T11:45:56.796Z,15.99
2017-09-12T11:46:56.164Z,15.94
2017-09-12T11:47:56.467Z,15.9
2017-09-12T11:48:56.463Z,15.88
2017-09-12T11:49:56.776Z,15.91
2017-09-12T11:50:56.454Z,15.98
2017-09-12T11:51:56.448Z,16.02
2017-09-12T11:52:56.854Z,15.9
2017-09-12T11:53:56.442Z,15.88
2017-09-12T11:54:56.430Z,15.98
2017-09-12T11:55:56.742Z,15.91
2017-09-12T11:56:56.739Z,15.94
2017-09-12T11:57:56.725Z,16.17
2017-09-12T11:58:56.095Z,16.09
2017-09-12T11:59:56.088Z,16.12
2017-09-12T12:00:56.714Z,16.18
2017-09-12T12:01:56.394Z,16.21
2017-09-12T12:02:56.705Z,16.34
2017-09-12T12:03:56.379Z,16.29
2017-09-12T12:04:56.060Z,16.34
2017-09-12T12:05:56.056Z,16.4
2017-09-12T12:06:56.680Z,16.44
2017-09-12T12:07:56.678Z,16.5
2017-09-12T12:08:56.772Z,16.44
2017-09-12T12:09:56.348Z,16.41
2017-09-12T12:10:56.751Z,16.41
2017-09-12T12:11:56.651Z,16.32
2017-09-12T12:12:56.640Z,16.25
2017-09-12T12:13:56.325Z,16.24
2017-09-12T12:14:56.319Z,16.12
2017-09-12T12:15:56.312Z,16.13
2017-09-12T12:16:56.307Z,16.13
2017-09-12T12:17:56.301Z,16.09
2017-09-12T12:18:56.295Z,16.06
2017-09-12T12:19:56.288Z,16.09
2017-09-12T12:20:56.293Z,16.12
2017-09-12T12:21:56.281Z,16.18
2017-09-12T12:22:55.958Z,16.26
2017-09-12T12:23:56.268Z,16.4
2017-09-12T12:24:56.363Z,16.43
2017-09-12T12:25:56.256Z,16.43
2017-09-12T12:26:56.253Z,16.43
2017-09-12T12:27:55.929Z,16.49
2017-09-12T12:28:56.238Z,16.61
2017-09-12T12:29:56.233Z,16.5
2017-09-12T12:30:56.227Z,16.5
2017-09-12T12:31:56.324Z,16.59
2017-09-12T12:32:55.903Z,16.58
2017-09-12T12:33:56.211Z,16.55
2017-09-12T12:34:56.206Z,16.62
2017-09-12T12:35:55.887Z,16.65
2017-09-12T12:36:56.196Z,16.65
2017-09-12T12:37:56.185Z,16.79
2017-09-12T12:38:55.969Z,16.72
2017-09-12T12:39:56.182Z,16.79
2017-09-12T12:40:56.489Z,16.69
2017-09-12T12:41:56.480Z,16.74
2017-09-12T12:42:56.159Z,16.76
2017-09-12T12:43:56.156Z,16.69
2017-09-12T12:44:56.461Z,16.65
2017-09-12T12:45:56.491Z,16.73
2017-09-12T12:46:55.826Z,16.66
2017-09-12T12:47:55.820Z,16.79
2017-09-12T12:48:56.439Z,16.92
2017-09-12T12:49:56.120Z,16.83
2017-09-12T12:50:56.118Z,16.92
2017-09-12T12:51:56.522Z,16.92
2017-09-12T12:52:56.105Z,16.89
2017-09-12T12:53:56.100Z,16.84
2017-09-12T12:54:56.419Z,16.89